Time;durP1;ratioP1;P1;durP2;ratioP2;P2;SDS_P1;SDS_P2;PMS_P1;PMS_P2;Temp;Humidity;BMP_temperature;BMP_pressure;BME280_temperature;BME280_humidity;BME280_pressure;Samples;Min_cycle;Max_cycle;Signal;HPM_P1;HPM_P2
2021/07/29 00:01:54;;;;;;;8.80;3.58;;;;;;;;;;4205924;34;20193;-74
2021/07/29 00:04:20;;;;;;;8.48;4.07;;;;;;;;;;4205870;34;20137;-76
2021/07/29 00:06:46;;;;;;;9.70;4.82;;;;;;;;;;4205821;34;20133;-76
2021/07/29 00:09:12;;;;;;;6.60;4.43;;;;;;;;;;4193317;34;20126;-75
2021/07/29 00:11:38;;;;;;;7.65;4.90;;;;;;;;;;4192990;34;20121;-76
2021/07/29 00:14:04;;;;;;;8.65;4.55;;;;;;;;;;4204738;34;20141;-73
2021/07/29 00:16:32;;;;;;;5.78;4.70;;;;;;;;;;4205600;34;20105;-76
2021/07/29 00:19:08;;;;;;;8.63;5.18;;;;;;;;;;4206099;34;20122;-76
2021/07/29 00:21:35;;;;;;;12.37;6.25;;;;;;;;;;4194208;34;20504;-77
2021/07/29 00:24:02;;;;;;;10.45;6.85;;;;;;;;;;4192991;34;20472;-74
2021/07/29 00:26:28;;;;;;;14.07;7.60;;;;;;;;;;4192891;34;20208;-74
2021/07/29 00:28:54;;;;;;;11.90;7.70;;;;;;;;;;4192891;34;20474;-73
2021/07/29 00:31:20;;;;;;;17.98;7.87;;;;;;;;;;4193194;34;20192;-76
2021/07/29 00:33:46;;;;;;;9.70;6.60;;;;;;;;;;4182114;34;20133;-73
2021/07/29 00:36:21;;;;;;;12.25;6.72;;;;;;;;;;4192824;34;20106;-76
2021/07/29 00:38:48;;;;;;;11.80;6.00;;;;;;;;;;4193338;34;20330;-76
2021/07/29 00:41:14;;;;;;;9.82;6.18;;;;;;;;;;4204455;34;20118;-76
2021/07/29 00:43:41;;;;;;;10.25;6.78;;;;;;;;;;4205849;34;20233;-76
2021/07/29 00:46:06;;;;;;;13.82;6.43;;;;;;;;;;4205782;34;20116;-77
2021/07/29 00:48:37;;;;;;;10.07;5.85;;;;;;;;;;4205515;34;20121;-73
2021/07/29 00:51:03;;;;;;;10.00;5.35;;;;;;;;;;4203914;34;20213;-73
2021/07/29 00:53:29;;;;;;;9.73;4.90;;;;;;;;;;4205413;34;20129;-77
2021/07/29 00:55:56;;;;;;;7.82;4.47;;;;;;;;;;4204159;34;20140;-73
2021/07/29 00:58:22;;;;;;;9.65;4.65;;;;;;;;;;4203534;34;20546;-75
2021/07/29 01:00:48;;;;;;;9.05;4.72;;;;;;;;;;4215453;34;20121;-76
2021/07/29 01:03:14;;;;;;;6.30;4.35;;;;;;;;;;4204577;34;20498;-74
2021/07/29 01:05:41;;;;;;;6.53;4.07;;;;;;;;;;4181219;34;20097;-76
2021/07/29 01:08:07;;;;;;;7.87;4.40;;;;;;;;;;4205201;34;20125;-76
2021/07/29 01:10:35;;;;;;;10.57;4.05;;;;;;;;;;4205165;34;20121;-72
2021/07/29 01:13:01;;;;;;;6.28;3.87;;;;;;;;;;4205227;34;20114;-74
2021/07/29 01:15:27;;;;;;;6.70;4.07;;;;;;;;;;4205763;34;20132;-76
2021/07/29 01:18:01;;;;;;;6.50;3.42;;;;;;;;;;4205396;34;20125;-77
2021/07/29 01:20:27;;;;;;;5.40;3.75;;;;;;;;;;4181668;34;20209;-75
2021/07/29 01:22:53;;;;;;;11.30;4.20;;;;;;;;;;4192359;34;20209;-75
2021/07/29 01:25:19;;;;;;;9.20;3.50;;;;;;;;;;4205328;34;20186;-74
2021/07/29 01:27:45;;;;;;;14.05;4.05;;;;;;;;;;4204949;34;20616;-75
2021/07/29 01:30:11;;;;;;;5.15;2.85;;;;;;;;;;4205103;34;20519;-73
2021/07/29 01:32:39;;;;;;;8.80;3.08;;;;;;;;;;4215318;33;20138;-75
2021/07/29 01:35:08;;;;;;;4.93;3.22;;;;;;;;;;4192529;34;20544;-73
2021/07/29 01:37:35;;;;;;;4.40;2.85;;;;;;;;;;4205068;34;20116;-74
2021/07/29 01:40:01;;;;;;;3.75;2.58;;;;;;;;;;4205179;34;20120;-76
2021/07/29 01:42:27;;;;;;;4.03;2.87;;;;;;;;;;4204998;34;20114;-74
2021/07/29 01:44:53;;;;;;;4.90;3.03;;;;;;;;;;4180494;34;20201;-76
2021/07/29 01:47:19;;;;;;;6.62;3.42;;;;;;;;;;4205040;34;20144;-73
2021/07/29 01:49:45;;;;;;;5.20;3.70;;;;;;;;;;4192509;34;20124;-74
2021/07/29 01:52:10;;;;;;;5.22;3.80;;;;;;;;;;4180544;34;20201;-73
2021/07/29 01:54:36;;;;;;;7.75;4.60;;;;;;;;;;4205073;34;20469;-76
2021/07/29 01:57:06;;;;;;;8.13;5.25;;;;;;;;;;4215163;34;20222;-75
2021/07/29 01:59:35;;;;;;;7.03;4.70;;;;;;;;;;4203754;34;20109;-74
2021/07/29 02:02:01;;;;;;;6.85;4.30;;;;;;;;;;4180683;34;20604;-76
2021/07/29 02:04:27;;;;;;;9.05;3.72;;;;;;;;;;4192006;34;20109;-76
2021/07/29 02:06:53;;;;;;;5.70;2.97;;;;;;;;;;4192204;34;20117;-76
2021/07/29 02:09:19;;;;;;;5.30;2.90;;;;;;;;;;4215517;34;20121;-76
2021/07/29 02:11:49;;;;;;;4.00;3.10;;;;;;;;;;4192019;34;20141;-76
2021/07/29 02:14:18;;;;;;;5.57;2.87;;;;;;;;;;4214235;34;20129;-74
2021/07/29 02:16:44;;;;;;;6.22;2.40;;;;;;;;;;4191930;34;20113;-76
2021/07/29 02:19:10;;;;;;;7.30;2.80;;;;;;;;;;4204570;34;20121;-76
2021/07/29 02:21:36;;;;;;;4.87;2.75;;;;;;;;;;4191490;34;20521;-73
2021/07/29 02:24:02;;;;;;;4.28;2.60;;;;;;;;;;4191768;34;20149;-76
2021/07/29 02:26:28;;;;;;;7.20;2.87;;;;;;;;;;4204519;34;20145;-76
2021/07/29 02:28:54;;;;;;;2.87;2.28;;;;;;;;;;4204548;34;20128;-77
2021/07/29 02:31:20;;;;;;;4.03;2.33;;;;;;;;;;4214397;34;20118;-74
2021/07/29 02:33:46;;;;;;;3.30;2.33;;;;;;;;;;4191462;34;20125;-73
2021/07/29 02:36:29;;;;;;;6.35;2.20;;;;;;;;;;4204233;34;20117;-73
2021/07/29 02:38:55;;;;;;;6.35;2.92;;;;;;;;;;4191268;34;20114;-71
2021/07/29 02:41:22;;;;;;;11.50;3.58;;;;;;;;;;4204277;34;20105;-72
2021/07/29 02:43:48;;;;;;;3.37;2.30;;;;;;;;;;4204048;34;20129;-71
2021/07/29 02:46:14;;;;;;;2.20;2.00;;;;;;;;;;4214503;34;20189;-70
2021/07/29 02:48:41;;;;;;;5.18;2.30;;;;;;;;;;4204381;34;20152;-70
2021/07/29 02:51:10;;;;;;;4.87;2.47;;;;;;;;;;4202584;34;20612;-70
2021/07/29 02:54:32;;;;;;;6.05;2.62;;;;;;;;;;4216201;33;20104;-74
2021/07/29 02:56:58;;;;;;;4.90;2.33;;;;;;;;;;4203898;34;20216;-69
2021/07/29 02:59:24;;;;;;;4.47;2.45;;;;;;;;;;4213468;33;20506;-70
2021/07/29 03:01:50;;;;;;;5.82;2.20;;;;;;;;;;4203920;34;20114;-69
2021/07/29 03:04:50;;;;;;;5.03;2.10;;;;;;;;;;4213912;34;20104;-68
2021/07/29 03:07:23;;;;;;;10.05;2.97;;;;;;;;;;4208209;33;20126;-70
2021/07/29 03:09:49;;;;;;;2.85;2.35;;;;;;;;;;4190071;34;20155;-72
2021/07/29 03:12:15;;;;;;;3.70;1.85;;;;;;;;;;4211734;34;20149;-69
2021/07/29 03:14:41;;;;;;;4.95;2.22;;;;;;;;;;4211968;33;20110;-69
2021/07/29 03:17:07;;;;;;;2.72;2.20;;;;;;;;;;4189870;34;20241;-73
2021/07/29 03:19:33;;;;;;;4.68;2.60;;;;;;;;;;4211733;33;20094;-70
2021/07/29 03:21:59;;;;;;;5.05;2.33;;;;;;;;;;4211515;34;20210;-70
2021/07/29 03:24:25;;;;;;;3.90;1.98;;;;;;;;;;4188128;34;20129;-71
2021/07/29 03:26:51;;;;;;;2.37;2.12;;;;;;;;;;4213438;34;20106;-69
2021/07/29 03:29:16;;;;;;;6.10;2.55;;;;;;;;;;4192002;34;20091;-70
2021/07/29 03:31:42;;;;;;;7.53;2.47;;;;;;;;;;4192033;34;20470;-71
2021/07/29 03:34:08;;;;;;;2.72;2.28;;;;;;;;;;4213510;34;20293;-70
2021/07/29 03:36:34;;;;;;;5.20;3.08;;;;;;;;;;4212465;34;20148;-71
2021/07/29 03:39:05;;;;;;;5.93;2.08;;;;;;;;;;4213586;34;20102;-73
2021/07/29 03:41:31;;;;;;;5.15;2.03;;;;;;;;;;4212649;34;20138;-70
2021/07/29 03:43:57;;;;;;;8.27;2.08;;;;;;;;;;4192167;34;20189;-73
2021/07/29 03:46:23;;;;;;;3.15;2.12;;;;;;;;;;4192272;34;20233;-72
2021/07/29 03:48:48;;;;;;;5.37;2.37;;;;;;;;;;4192162;34;20172;-70
2021/07/29 03:51:14;;;;;;;6.00;2.33;;;;;;;;;;4202217;34;20126;-71
2021/07/29 03:53:40;;;;;;;5.87;1.87;;;;;;;;;;4191852;34;20138;-76
2021/07/29 03:56:09;;;;;;;4.35;2.25;;;;;;;;;;4213980;34;20529;-73
2021/07/29 03:58:36;;;;;;;2.97;2.20;;;;;;;;;;4213949;33;20449;-75
2021/07/29 04:01:02;;;;;;;5.80;2.15;;;;;;;;;;4213061;33;20101;-73
2021/07/29 04:03:28;;;;;;;3.75;2.20;;;;;;;;;;4202053;34;20222;-73
2021/07/29 04:05:53;;;;;;;5.15;2.17;;;;;;;;;;4192659;34;20469;-73
2021/07/29 04:08:19;;;;;;;6.35;2.00;;;;;;;;;;4203079;34;20113;-80
2021/07/29 04:10:45;;;;;;;2.30;1.98;;;;;;;;;;4192577;34;20126;-72
2021/07/29 04:13:11;;;;;;;3.95;2.12;;;;;;;;;;4213065;34;20142;-74
2021/07/29 04:15:37;;;;;;;7.57;2.50;;;;;;;;;;4191512;34;20659;-73
2021/07/29 04:18:03;;;;;;;5.97;2.10;;;;;;;;;;4213564;34;20128;-72
2021/07/29 04:20:29;;;;;;;6.43;2.25;;;;;;;;;;4192095;34;20229;-74
2021/07/29 04:22:55;;;;;;;5.03;2.17;;;;;;;;;;4213183;34;20632;-73
2021/07/29 04:25:21;;;;;;;4.43;2.25;;;;;;;;;;4192000;34;20252;-74
2021/07/29 04:27:47;;;;;;;5.45;2.28;;;;;;;;;;4213407;33;20122;-72
2021/07/29 04:30:13;;;;;;;8.20;4.10;;;;;;;;;;4191811;34;20613;-72
2021/07/29 04:32:39;;;;;;;18.02;3.33;;;;;;;;;;4192498;34;20587;-79
2021/07/29 04:35:06;;;;;;;4.32;2.90;;;;;;;;;;4190163;34;20543;-78
2021/07/29 04:37:32;;;;;;;5.10;2.83;;;;;;;;;;4190100;34;20384;-74
2021/07/29 04:39:58;;;;;;;7.15;3.50;;;;;;;;;;4202259;34;20144;-77
2021/07/29 04:42:24;;;;;;;3.95;2.67;;;;;;;;;;4190538;34;20129;-75
2021/07/29 04:44:50;;;;;;;4.65;2.67;;;;;;;;;;4201603;34;20113;-79
2021/07/29 04:47:17;;;;;;;3.25;2.55;;;;;;;;;;4179440;34;20202;-74
2021/07/29 04:49:43;;;;;;;4.90;2.42;;;;;;;;;;4191416;34;20533;-79
2021/07/29 04:52:09;;;;;;;4.18;2.53;;;;;;;;;;4190378;34;20121;-79
2021/07/29 04:54:35;;;;;;;7.45;2.53;;;;;;;;;;4189961;34;20117;-73
2021/07/29 04:57:01;;;;;;;7.57;2.90;;;;;;;;;;4191052;34;20200;-74
2021/07/29 04:59:27;;;;;;;2.67;2.00;;;;;;;;;;4191573;34;20178;-74
2021/07/29 05:01:53;;;;;;;8.35;2.50;;;;;;;;;;4190612;34;20158;-79
2021/07/29 05:04:19;;;;;;;5.25;2.58;;;;;;;;;;4178691;34;20113;-74
2021/07/29 05:06:44;;;;;;;5.40;2.75;;;;;;;;;;4179717;34;20193;-79
2021/07/29 05:09:10;;;;;;;3.37;1.83;;;;;;;;;;4206782;34;20127;-72
2021/07/29 05:11:37;;;;;;;8.98;2.33;;;;;;;;;;4205011;34;20225;-71
2021/07/29 05:14:03;;;;;;;5.05;2.08;;;;;;;;;;4192213;34;20140;-74
2021/07/29 05:16:29;;;;;;;8.32;2.40;;;;;;;;;;4205383;34;20105;-78
2021/07/29 05:18:55;;;;;;;4.25;2.40;;;;;;;;;;4205527;34;20130;-71
2021/07/29 05:21:21;;;;;;;5.43;2.50;;;;;;;;;;4205447;34;20137;-74
2021/07/29 05:23:48;;;;;;;6.68;2.47;;;;;;;;;;4191829;34;20625;-73
2021/07/29 05:26:17;;;;;;;6.87;2.87;;;;;;;;;;4198071;34;20521;-74
2021/07/29 05:28:43;;;;;;;4.15;2.40;;;;;;;;;;4191898;34;20469;-74
2021/07/29 05:31:12;;;;;;;4.03;2.55;;;;;;;;;;4191251;34;20126;-76
2021/07/29 05:33:39;;;;;;;3.00;2.22;;;;;;;;;;4192203;34;20105;-74
2021/07/29 05:36:05;;;;;;;5.60;2.22;;;;;;;;;;4191102;34;20118;-74
2021/07/29 05:38:34;;;;;;;3.35;2.85;;;;;;;;;;4178359;34;20129;-71
2021/07/29 05:41:07;;;;;;;6.62;3.80;;;;;;;;;;4178699;34;20465;-72
2021/07/29 05:43:34;;;;;;;5.15;3.45;;;;;;;;;;4178797;34;20509;-74
2021/07/29 05:46:00;;;;;;;6.25;3.05;;;;;;;;;;4178541;34;20138;-74
2021/07/29 05:48:26;;;;;;;8.95;3.10;;;;;;;;;;4177757;34;20114;-74
2021/07/29 05:50:56;;;;;;;2.90;2.22;;;;;;;;;;4167555;34;20458;-79
2021/07/29 05:53:23;;;;;;;7.05;2.70;;;;;;;;;;4178247;34;20086;-74
2021/07/29 05:55:51;;;;;;;5.80;2.42;;;;;;;;;;4177944;34;20116;-74
2021/07/29 05:58:17;;;;;;;8.55;2.50;;;;;;;;;;4178323;34;20221;-74
2021/07/29 06:00:43;;;;;;;5.45;2.85;;;;;;;;;;4192144;34;20122;-79
2021/07/29 06:03:09;;;;;;;10.30;2.78;;;;;;;;;;4190887;34;20125;-73
2021/07/29 06:05:35;;;;;;;4.12;2.53;;;;;;;;;;4178185;34;20504;-79
2021/07/29 06:08:01;;;;;;;7.85;2.62;;;;;;;;;;4199369;34;20201;-74
2021/07/29 06:10:27;;;;;;;3.85;2.30;;;;;;;;;;4205349;34;20126;-72
2021/07/29 06:12:53;;;;;;;5.82;2.45;;;;;;;;;;4192252;34;20180;-72
2021/07/29 06:15:19;;;;;;;4.28;2.80;;;;;;;;;;4205484;34;20635;-74
2021/07/29 06:17:49;;;;;;;3.25;1.90;;;;;;;;;;4192252;34;20125;-73
2021/07/29 06:20:15;;;;;;;3.90;2.40;;;;;;;;;;4215272;34;20116;-75
2021/07/29 06:22:41;;;;;;;5.25;2.55;;;;;;;;;;4204548;34;20121;-72
2021/07/29 06:25:09;;;;;;;4.68;1.98;;;;;;;;;;4204855;34;20132;-79
2021/07/29 06:27:36;;;;;;;5.87;2.65;;;;;;;;;;4170793;34;20248;-80
2021/07/29 06:30:06;;;;;;;3.15;2.28;;;;;;;;;;4215416;34;20225;-74
2021/07/29 06:32:32;;;;;;;7.05;2.60;;;;;;;;;;4204251;34;20533;-73
2021/07/29 06:34:58;;;;;;;6.85;2.12;;;;;;;;;;4204258;34;20137;-73
2021/07/29 06:37:24;;;;;;;4.00;2.58;;;;;;;;;;4214481;33;20090;-71
2021/07/29 06:39:50;;;;;;;7.10;2.30;;;;;;;;;;4191811;34;20106;-74
2021/07/29 06:42:16;;;;;;;4.32;2.92;;;;;;;;;;4204150;34;20117;-71
2021/07/29 06:44:48;;;;;;;4.15;2.90;;;;;;;;;;4203980;34;20140;-71
2021/07/29 06:47:18;;;;;;;3.47;2.03;;;;;;;;;;4180140;34;20209;-71
2021/07/29 06:49:44;;;;;;;3.37;2.22;;;;;;;;;;4202167;34;20628;-73
2021/07/29 06:52:11;;;;;;;3.83;2.35;;;;;;;;;;4204407;34;20205;-80
2021/07/29 06:54:38;;;;;;;3.25;1.95;;;;;;;;;;4214152;34;20231;-78
2021/07/29 06:57:07;;;;;;;3.08;2.17;;;;;;;;;;4204634;34;20273;-71
2021/07/29 06:59:34;;;;;;;8.18;2.92;;;;;;;;;;4192967;34;20102;-74
2021/07/29 07:02:00;;;;;;;6.28;2.50;;;;;;;;;;4182301;34;20098;-79
2021/07/29 07:04:26;;;;;;;4.47;2.87;;;;;;;;;;4205873;34;20264;-74
2021/07/29 07:06:52;;;;;;;3.45;2.62;;;;;;;;;;4205680;34;20121;-74
2021/07/29 07:09:18;;;;;;;2.97;2.42;;;;;;;;;;4182151;34;20151;-74
2021/07/29 07:11:44;;;;;;;5.78;2.75;;;;;;;;;;4193810;34;20206;-74
2021/07/29 07:14:10;;;;;;;13.93;2.97;;;;;;;;;;4193280;34;20132;-74
2021/07/29 07:16:36;;;;;;;5.57;2.85;;;;;;;;;;4206848;34;20465;-79
2021/07/29 07:19:03;;;;;;;4.65;2.92;;;;;;;;;;4192934;34;20117;-71
2021/07/29 07:21:28;;;;;;;3.03;2.50;;;;;;;;;;4182101;34;20121;-79
2021/07/29 07:23:54;;;;;;;7.50;2.78;;;;;;;;;;4206249;34;20116;-79
2021/07/29 07:26:21;;;;;;;6.50;3.00;;;;;;;;;;4194109;34;20202;-73
2021/07/29 07:28:48;;;;;;;4.15;2.75;;;;;;;;;;4192853;34;20113;-71
2021/07/29 07:31:14;;;;;;;5.45;3.00;;;;;;;;;;4181330;34;20125;-74
2021/07/29 07:33:40;;;;;;;7.43;2.80;;;;;;;;;;4205904;34;20167;-80
2021/07/29 07:36:06;;;;;;;4.10;2.97;;;;;;;;;;4206466;34;20217;-74
2021/07/29 07:38:32;;;;;;;7.50;3.30;;;;;;;;;;4215833;33;20106;-74
2021/07/29 07:41:06;;;;;;;7.47;3.22;;;;;;;;;;4192961;34;20573;-74
2021/07/29 07:43:32;;;;;;;4.20;2.97;;;;;;;;;;4193042;34;20121;-72
2021/07/29 07:45:59;;;;;;;5.95;3.40;;;;;;;;;;4205645;34;20211;-73
2021/07/29 07:48:26;;;;;;;4.20;2.50;;;;;;;;;;4192623;34;20194;-78
2021/07/29 07:50:55;;;;;;;6.85;2.97;;;;;;;;;;4205902;34;20153;-77
2021/07/29 07:53:25;;;;;;;5.80;3.20;;;;;;;;;;4216393;34;20204;-73
2021/07/29 07:55:54;;;;;;;8.45;3.10;;;;;;;;;;4193962;34;20090;-78
2021/07/29 07:58:20;;;;;;;7.93;2.95;;;;;;;;;;4181573;34;20528;-79
2021/07/29 08:00:46;;;;;;;6.05;2.85;;;;;;;;;;4206129;34;20121;-78
2021/07/29 08:03:12;;;;;;;7.95;3.20;;;;;;;;;;4193045;34;20486;-71
2021/07/29 08:05:39;;;;;;;8.27;3.42;;;;;;;;;;4192747;34;20137;-78
2021/07/29 08:08:08;;;;;;;7.07;3.20;;;;;;;;;;4178722;34;20126;-78
2021/07/29 08:10:35;;;;;;;4.12;2.50;;;;;;;;;;4190994;34;20103;-74
2021/07/29 08:13:05;;;;;;;7.45;3.80;;;;;;;;;;4213723;33;20121;-74
2021/07/29 08:15:31;;;;;;;5.60;2.78;;;;;;;;;;4191209;34;20210;-74
2021/07/29 08:17:57;;;;;;;9.23;3.17;;;;;;;;;;4190185;34;20386;-73
2021/07/29 08:20:26;;;;;;;8.80;2.87;;;;;;;;;;4190332;34;20325;-75
2021/07/29 08:22:53;;;;;;;5.03;2.62;;;;;;;;;;4190438;34;20298;-74
2021/07/29 08:25:20;;;;;;;3.92;2.78;;;;;;;;;;4190979;34;20539;-74
2021/07/29 08:27:50;;;;;;;3.45;2.90;;;;;;;;;;4190474;34;20146;-78
2021/07/29 08:30:18;;;;;;;6.95;2.85;;;;;;;;;;4192278;34;20501;-71
2021/07/29 08:32:44;;;;;;;17.58;3.22;;;;;;;;;;4190337;34;20110;-78
2021/07/29 08:35:10;;;;;;;4.55;2.90;;;;;;;;;;4201905;34;20206;-73
2021/07/29 08:37:37;;;;;;;5.35;3.12;;;;;;;;;;4213473;33;20098;-78
2021/07/29 08:40:03;;;;;;;5.25;2.67;;;;;;;;;;4178997;34;20114;-77
2021/07/29 08:42:31;;;;;;;4.80;2.62;;;;;;;;;;4213354;34;20126;-71
2021/07/29 08:45:01;;;;;;;4.70;3.15;;;;;;;;;;4190473;34;20113;-71
2021/07/29 08:47:32;;;;;;;7.82;3.37;;;;;;;;;;4193194;34;20086;-78
2021/07/29 08:50:05;;;;;;;8.38;3.30;;;;;;;;;;4190874;34;20156;-72
2021/07/29 08:52:35;;;;;;;5.12;3.00;;;;;;;;;;4191916;34;20129;-72
2021/07/29 08:55:02;;;;;;;7.07;2.90;;;;;;;;;;4190834;34;20225;-74
2021/07/29 08:57:30;;;;;;;9.15;2.97;;;;;;;;;;4191850;34;20118;-72
2021/07/29 08:59:57;;;;;;;5.80;2.87;;;;;;;;;;4190320;34;20113;-72
2021/07/29 09:02:26;;;;;;;11.05;3.33;;;;;;;;;;4189674;34;20132;-73
2021/07/29 09:05:14;;;;;;;4.00;3.10;;;;;;;;;;4190803;34;20524;-78
2021/07/29 09:07:40;;;;;;;5.55;3.08;;;;;;;;;;4212909;34;20122;-72
2021/07/29 09:10:24;;;;;;;5.20;3.15;;;;;;;;;;4190365;34;20134;-73
2021/07/29 09:13:10;;;;;;;11.48;3.65;;;;;;;;;;4191287;34;20181;-74
2021/07/29 09:15:36;;;;;;;7.45;3.30;;;;;;;;;;4191381;34;20109;-71
2021/07/29 09:18:02;;;;;;;10.85;3.33;;;;;;;;;;4191043;34;20205;-74
2021/07/29 09:20:28;;;;;;;6.40;3.33;;;;;;;;;;4191777;34;20217;-72
2021/07/29 09:22:54;;;;;;;6.62;3.37;;;;;;;;;;4189543;34;20126;-74
2021/07/29 09:25:25;;;;;;;9.40;3.03;;;;;;;;;;4189724;34;20113;-74
2021/07/29 09:27:52;;;;;;;7.30;3.12;;;;;;;;;;4194184;34;20490;-80
2021/07/29 09:30:25;;;;;;;4.50;2.85;;;;;;;;;;4213051;33;20481;-80
2021/07/29 09:32:59;;;;;;;4.50;3.00;;;;;;;;;;4213177;33;20502;-74
2021/07/29 09:35:44;;;;;;;4.13;3.10;;;;;;;;;;4201831;34;20157;-72
2021/07/29 09:38:25;;;;;;;3.40;2.60;;;;;;;;;;4212900;34;20136;-72
2021/07/29 09:40:53;;;;;;;7.28;3.78;;;;;;;;;;4201922;34;20205;-74
2021/07/29 09:43:32;;;;;;;5.37;2.80;;;;;;;;;;4200550;34;20130;-74
2021/07/29 09:45:59;;;;;;;6.62;3.05;;;;;;;;;;4193297;34;20102;-81
2021/07/29 09:48:25;;;;;;;7.30;2.78;;;;;;;;;;4212443;34;20465;-74
2021/07/29 09:51:09;;;;;;;5.55;3.53;;;;;;;;;;4192997;34;20549;-81
2021/07/29 09:53:36;;;;;;;3.70;2.47;;;;;;;;;;4213292;34;20213;-74
2021/07/29 09:56:08;;;;;;;6.55;4.05;;;;;;;;;;4214414;34;20102;-80
2021/07/29 09:58:35;;;;;;;7.25;2.58;;;;;;;;;;4212166;34;20209;-74
2021/07/29 10:01:02;;;;;;;5.20;2.95;;;;;;;;;;4191761;34;20126;-80
2021/07/29 10:03:28;;;;;;;4.57;2.70;;;;;;;;;;4192518;34;20146;-74
2021/07/29 10:06:01;;;;;;;3.92;2.80;;;;;;;;;;4200392;34;20129;-74
2021/07/29 10:08:27;;;;;;;8.18;4.37;;;;;;;;;;4199733;34;20116;-73
2021/07/29 10:10:53;;;;;;;7.40;3.42;;;;;;;;;;4191316;34;20228;-78
2021/07/29 10:13:19;;;;;;;7.22;2.92;;;;;;;;;;4201517;34;20132;-72
2021/07/29 10:15:55;;;;;;;3.55;3.00;;;;;;;;;;4213152;33;20126;-73
2021/07/29 10:18:51;;;;;;;6.43;3.47;;;;;;;;;;4211922;34;20138;-69
2021/07/29 10:21:29;;;;;;;13.23;3.87;;;;;;;;;;4192082;34;20121;-84
2021/07/29 10:23:56;;;;;;;7.00;3.62;;;;;;;;;;4191837;34;20513;-74
2021/07/29 10:26:22;;;;;;;11.93;3.55;;;;;;;;;;4211949;33;20133;-77
2021/07/29 10:28:48;;;;;;;7.68;4.40;;;;;;;;;;4190897;34;20111;-76
2021/07/29 10:31:16;;;;;;;8.13;3.75;;;;;;;;;;4213966;33;20126;-80
2021/07/29 10:33:43;;;;;;;7.25;3.42;;;;;;;;;;4192265;34;20125;-74
2021/07/29 10:36:45;;;;;;;7.78;3.28;;;;;;;;;;4202552;34;20543;-74
2021/07/29 10:39:11;;;;;;;7.57;3.10;;;;;;;;;;4192644;34;20125;-80
2021/07/29 10:41:41;;;;;;;4.62;3.25;;;;;;;;;;4193170;34;20097;-73
2021/07/29 10:44:34;;;;;;;6.97;3.75;;;;;;;;;;4195953;34;20181;-81
2021/07/29 10:47:01;;;;;;;8.15;3.10;;;;;;;;;;4171332;34;20106;-80
2021/07/29 10:49:46;;;;;;;5.62;3.87;;;;;;;;;;4204260;34;20114;-82
2021/07/29 10:52:13;;;;;;;4.72;3.58;;;;;;;;;;4193296;34;20109;-71
2021/07/29 10:54:43;;;;;;;7.30;3.17;;;;;;;;;;4191296;34;20125;-73
2021/07/29 10:57:10;;;;;;;8.60;3.50;;;;;;;;;;4213935;34;20118;-71
2021/07/29 10:59:36;;;;;;;7.80;3.70;;;;;;;;;;4191791;34;20134;-79
2021/07/29 11:02:12;;;;;;;6.05;3.83;;;;;;;;;;4216572;33;20122;-72
2021/07/29 11:04:59;;;;;;;7.65;3.15;;;;;;;;;;4193496;34;20204;-70
2021/07/29 11:07:25;;;;;;;3.37;3.08;;;;;;;;;;4190788;34;20090;-72
2021/07/29 11:10:21;;;;;;;6.25;3.10;;;;;;;;;;4192277;34;20102;-74
2021/07/29 11:12:47;;;;;;;8.82;3.28;;;;;;;;;;4191659;34;20133;-80
2021/07/29 11:15:13;;;;;;;6.03;3.58;;;;;;;;;;4190816;34;20197;-72
2021/07/29 11:17:39;;;;;;;9.88;3.60;;;;;;;;;;4190576;34;20118;-72
2021/07/29 11:20:06;;;;;;;5.68;3.90;;;;;;;;;;4190352;34;20126;-73
2021/07/29 11:22:45;;;;;;;7.53;2.83;;;;;;;;;;4191138;34;20087;-79
2021/07/29 11:25:11;;;;;;;7.32;3.60;;;;;;;;;;4180817;34;20120;-74
2021/07/29 11:27:37;;;;;;;4.50;3.00;;;;;;;;;;4192204;34;20201;-80
2021/07/29 11:30:04;;;;;;;9.65;3.47;;;;;;;;;;4192469;34;20488;-79
2021/07/29 11:32:46;;;;;;;11.43;3.30;;;;;;;;;;4205860;34;20168;-72
2021/07/29 11:35:14;;;;;;;5.32;3.03;;;;;;;;;;4205159;34;20219;-74
2021/07/29 11:37:42;;;;;;;6.57;3.20;;;;;;;;;;4204623;34;20128;-74
2021/07/29 11:40:18;;;;;;;8.73;3.17;;;;;;;;;;4205954;34;20537;-80
2021/07/29 11:42:44;;;;;;;9.02;3.42;;;;;;;;;;4204640;34;20465;-74
2021/07/29 11:45:32;;;;;;;9.13;3.67;;;;;;;;;;4192767;34;20118;-74
2021/07/29 11:47:58;;;;;;;7.00;3.60;;;;;;;;;;4195778;34;20141;-80
2021/07/29 11:50:36;;;;;;;9.68;4.03;;;;;;;;;;4205375;34;20148;-72
2021/07/29 11:53:02;;;;;;;7.18;4.37;;;;;;;;;;4207430;34;20110;-80
2021/07/29 11:55:28;;;;;;;7.70;3.90;;;;;;;;;;4206372;34;20125;-73
2021/07/29 11:57:54;;;;;;;7.80;4.10;;;;;;;;;;4203906;34;20112;-73
2021/07/29 12:00:27;;;;;;;7.43;3.75;;;;;;;;;;4204654;34;20122;-73
2021/07/29 12:02:54;;;;;;;6.82;4.60;;;;;;;;;;4205285;34;20148;-82
2021/07/29 12:05:20;;;;;;;9.90;4.10;;;;;;;;;;4204066;34;20213;-73
2021/07/29 12:07:46;;;;;;;9.77;4.82;;;;;;;;;;4207123;34;20124;-74
2021/07/29 12:10:12;;;;;;;6.32;4.55;;;;;;;;;;4206684;34;20548;-75
2021/07/29 12:12:40;;;;;;;6.93;4.47;;;;;;;;;;4195220;34;20440;-74
2021/07/29 12:15:06;;;;;;;8.80;4.93;;;;;;;;;;4229775;33;20679;-73
2021/07/29 12:17:32;;;;;;;6.72;4.20;;;;;;;;;;4220418;33;20640;-74
2021/07/29 12:19:59;;;;;;;13.77;4.55;;;;;;;;;;4206935;34;20148;-77
2021/07/29 12:22:26;;;;;;;9.95;3.75;;;;;;;;;;4221664;33;20121;-74
2021/07/29 12:24:52;;;;;;;7.03;3.53;;;;;;;;;;4220655;34;20515;-82
2021/07/29 12:27:19;;;;;;;12.37;4.43;;;;;;;;;;4208011;34;20278;-73
2021/07/29 12:29:46;;;;;;;12.70;4.50;;;;;;;;;;4195234;34;20122;-74
2021/07/29 12:32:24;;;;;;;5.68;3.90;;;;;;;;;;4195031;34;20121;-74
2021/07/29 12:34:52;;;;;;;5.90;3.90;;;;;;;;;;4204063;34;20486;-73
2021/07/29 12:37:35;;;;;;;8.60;4.10;;;;;;;;;;4204205;34;20122;-78
2021/07/29 12:40:25;;;;;;;4.47;3.47;;;;;;;;;;4215358;34;20102;-73
2021/07/29 12:42:51;;;;;;;6.60;3.75;;;;;;;;;;4201561;34;20098;-74
2021/07/29 12:45:17;;;;;;;11.52;3.75;;;;;;;;;;4205278;34;20160;-74
2021/07/29 12:48:05;;;;;;;10.13;3.50;;;;;;;;;;4215366;34;20102;-73
2021/07/29 12:50:38;;;;;;;7.07;3.90;;;;;;;;;;4205091;34;20121;-74
2021/07/29 12:53:22;;;;;;;7.57;4.10;;;;;;;;;;4215835;34;20121;-75
2021/07/29 12:55:49;;;;;;;8.25;4.40;;;;;;;;;;4205796;34;20217;-76
2021/07/29 12:58:15;;;;;;;13.60;4.82;;;;;;;;;;4205655;34;20140;-75
2021/07/29 13:00:48;;;;;;;7.97;4.07;;;;;;;;;;4204000;34;20209;-75
2021/07/29 13:03:26;;;;;;;6.97;4.07;;;;;;;;;;4215270;33;20132;-75
2021/07/29 13:05:56;;;;;;;9.35;4.15;;;;;;;;;;4215724;34;20142;-76
2021/07/29 13:08:22;;;;;;;6.53;3.80;;;;;;;;;;4205764;34;20114;-72
2021/07/29 13:10:48;;;;;;;8.68;3.90;;;;;;;;;;4204934;34;20221;-76
2021/07/29 13:13:17;;;;;;;6.65;3.72;;;;;;;;;;4193158;34;20114;-77
2021/07/29 13:15:43;;;;;;;8.57;4.55;;;;;;;;;;4194171;34;20110;-78
2021/07/29 13:18:09;;;;;;;11.90;4.20;;;;;;;;;;4206706;34;20212;-78
2021/07/29 13:20:35;;;;;;;15.45;6.22;;;;;;;;;;4205515;34;20148;-79
2021/07/29 13:23:01;;;;;;;11.35;6.05;;;;;;;;;;4194104;34;20133;-78
2021/07/29 13:25:27;;;;;;;7.97;4.60;;;;;;;;;;4182104;34;20572;-77
2021/07/29 13:27:53;;;;;;;11.32;5.18;;;;;;;;;;4194215;34;20113;-78
2021/07/29 13:30:19;;;;;;;14.68;5.85;;;;;;;;;;4208319;34;20128;-77
2021/07/29 13:32:45;;;;;;;9.32;4.87;;;;;;;;;;4218744;34;20121;-73
2021/07/29 13:35:11;;;;;;;10.95;4.35;;;;;;;;;;4191661;34;20473;-73
2021/07/29 13:37:37;;;;;;;8.95;4.45;;;;;;;;;;4191929;34;20124;-73
2021/07/29 13:40:03;;;;;;;7.53;4.00;;;;;;;;;;4205026;34;20140;-74
2021/07/29 13:42:29;;;;;;;8.45;4.65;;;;;;;;;;4191765;34;20125;-74
2021/07/29 13:45:15;;;;;;;14.07;4.40;;;;;;;;;;4203021;34;20478;-73
2021/07/29 13:47:41;;;;;;;8.93;4.45;;;;;;;;;;4204462;34;20121;-74
2021/07/29 13:50:07;;;;;;;9.30;4.37;;;;;;;;;;4204468;34;20137;-75
2021/07/29 13:52:33;;;;;;;14.15;4.82;;;;;;;;;;4180501;34;20502;-72
2021/07/29 13:54:59;;;;;;;8.18;4.18;;;;;;;;;;4214921;34;20155;-76
2021/07/29 13:57:25;;;;;;;10.20;4.18;;;;;;;;;;4214881;34;20102;-73
2021/07/29 13:59:51;;;;;;;15.52;4.10;;;;;;;;;;4202485;34;20117;-71
2021/07/29 14:02:18;;;;;;;8.60;4.00;;;;;;;;;;4191500;34;20607;-73
2021/07/29 14:04:44;;;;;;;8.57;3.65;;;;;;;;;;4169632;34;20505;-79
2021/07/29 14:07:09;;;;;;;12.95;4.30;;;;;;;;;;4192001;34;20108;-75
2021/07/29 14:09:36;;;;;;;9.23;3.62;;;;;;;;;;4205097;34;20178;-79
2021/07/29 14:12:02;;;;;;;6.68;3.60;;;;;;;;;;4206705;34;20117;-80
2021/07/29 14:14:28;;;;;;;8.50;4.00;;;;;;;;;;4205386;34;20098;-79
2021/07/29 14:17:17;;;;;;;7.93;4.20;;;;;;;;;;4204873;34;20101;-74
2021/07/29 14:23:22;;;;;;;11.10;4.82;;;;;;;;;;4204251;34;20105;-73
2021/07/29 14:25:29;;;;;;;19.60;4.57;;;;;;;;;;4208571;33;20114;-73
2021/07/29 14:27:56;;;;;;;11.05;4.78;;;;;;;;;;4202553;34;20113;-73
2021/07/29 14:30:22;;;;;;;8.02;4.28;;;;;;;;;;4202482;34;20110;-72
2021/07/29 14:32:49;;;;;;;14.93;4.62;;;;;;;;;;4213847;34;20145;-72
2021/07/29 14:35:16;;;;;;;6.70;3.83;;;;;;;;;;4213825;33;20120;-72
2021/07/29 14:37:42;;;;;;;9.75;4.03;;;;;;;;;;4203838;34;20090;-69
2021/07/29 14:40:08;;;;;;;4.65;3.67;;;;;;;;;;4203079;34;20537;-75
2021/07/29 14:43:11;;;;;;;11.02;4.18;;;;;;;;;;4204903;34;20511;-74
2021/07/29 14:51:16;;;;;;;8.75;4.70;;;;;;;;;;4182081;34;20237;-75
2021/07/29 14:53:42;;;;;;;12.77;4.68;;;;;;;;;;4180198;34;20522;-75
2021/07/29 16:08:19;;;;;;;13.18;6.93;;;;;;;;;;4204197;34;20110;-75
2021/07/29 16:10:45;;;;;;;10.52;6.35;;;;;;;;;;4205952;34;20447;-71